Hager City, WI

11:47 PM CST on December 27, 2014 (GMT -0600)
APRSWXNET Red Wing MN US | Change Station
CLOSE
Current Station
Personal Weather Station
Location: Red Wing, MN
Elevation: 853 ft
Nearby Weather Stations

Elev 853 ft 44.55 °N, 92.60 °W | Updated 47 minutes ago

Scattered Clouds
Scattered Clouds
5 °F
Feels Like 5 °F
N
0
Wind Variable Wind from South
Gusts 1.0 mph

Today
High -- | Low -- °F
--% Chance of Precip.
Yesterday
High -- | Low -- °F
Precip. -- in
7:46 AM 4:36 PM
Waxing Crescent, 44% visible
Pressure 30.13 in
Visibility 10.0 miles
Clouds Scattered Clouds 3600 ft
Windchill 5 °F
Dew Point 3 °F
Humidity 91%
Rainfall 0.00 in
Snow Depth Not available.
UV 0 out of 12
Pollen .10 out of 12
Air Quality Not available.
Flu Activity Not available.
METAR KRGK 280530Z AUTO 00000KT 10SM SCT036 M14/M16 A3013 RMK AO2

More Conditions Fewer Conditions

Pressure 30.13 in
Visibility 10.0 miles
Clouds Scattered Clouds 3600 ft
Windchill 5 °F
Dew Point 3 °F
Humidity 91%
Rainfall 0.00 in
Snow Depth Not available.
UV 0 out of 12
Pollen .10 out of 12
Air Quality Not available.
Flu Activity Not available.
METAR KRGK 280530Z AUTO 00000KT 10SM SCT036 M14/M16 A3013 RMK AO2

More Conditions Fewer Conditions

10-Day Weather Forecast

Almanac

Astronomy

Dec. 27, 2014 Rise Set
Actual Time
Civil Twilight
Nautical Twilight
Astronomical Twilight
Moon
Length of Visible Light
Length of Day
Tomorrow will be .
, % of the Moon is Illuminated

Today's Extremes

State Highs State Lows

Community

WunderPhotos

Upload Photos

1,781,209 photos uploaded!

WunderBlogs® & News

Nearby

Air Quality

  Air Quality AQ Index Pollutant
Not available.

Snow Depth

Station Depth Elevation

Earthquake Activity

City Distance Mag. Time & Date
Minimum magnitude displayed is 2.5.

Coastal Water Temperatures

Place Temperature

Nearby Weather Stations